Time;durP1;ratioP1;P1;durP2;ratioP2;P2;SDS_P1;SDS_P2;PMS_P1;PMS_P2;Temp;Humidity;BMP_temperature;BMP_pressure;BME280_temperature;BME280_humidity;BME280_pressure;Samples;Min_cycle;Max_cycle;Signal;HPM_P1;HPM_P2
2023/07/31 00:00:09;;;;;;;4.23;1.87;;;15.20;99.90;14.70;99649;;;;573457;248;24113;-81
2023/07/31 00:02:37;;;;;;;1.90;1.80;;;15.10;99.90;14.70;99635;;;;567316;249;24120;-82
2023/07/31 00:05:03;;;;;;;3.40;1.80;;;15.00;99.90;14.70;99629;;;;568098;249;24142;-82
2023/07/31 00:07:31;;;;;;;2.47;1.93;;;15.00;99.90;14.70;99627;;;;572337;249;24123;-84
2023/07/31 00:09:59;;;;;;;2.33;2.13;;;15.00;99.90;14.70;99626;;;;577098;245;24111;-83
2023/07/31 00:12:26;;;;;;;1.87;1.77;;;15.00;99.90;14.70;99626;;;;567318;249;24106;-81
2023/07/31 00:14:54;;;;;;;2.37;2.17;;;15.00;99.90;14.70;99626;;;;568180;249;24116;-81
2023/07/31 00:17:24;;;;;;;3.10;1.83;;;15.00;99.90;14.70;99626;;;;572260;249;24133;-81
2023/07/31 00:19:52;;;;;;;3.33;1.90;;;15.00;99.90;14.70;99625;;;;573115;249;24153;-82
2023/07/31 00:22:20;;;;;;;1.80;1.67;;;15.00;99.90;14.70;99612;;;;571970;249;24114;-81
2023/07/31 00:24:48;;;;;;;4.87;2.33;;;15.00;99.90;14.70;99618;;;;573043;249;24119;-81
2023/07/31 00:27:16;;;;;;;1.90;1.77;;;15.00;99.90;14.70;99622;;;;572048;249;24110;-82
2023/07/31 00:29:45;;;;;;;2.20;2.00;;;15.00;99.90;14.70;99631;;;;573011;249;24117;-81
2023/07/31 00:32:17;;;;;;;2.00;1.90;;;15.00;99.90;14.70;99631;;;;572051;249;24130;-82
2023/07/31 00:34:42;;;;;;;2.93;2.47;;;15.00;99.90;14.70;99627;;;;567801;249;24140;-81
2023/07/31 00:37:10;;;;;;;2.53;2.33;;;15.00;99.90;14.70;99627;;;;571763;249;24170;-82
2023/07/31 00:39:38;;;;;;;2.97;2.20;;;15.00;99.90;14.70;99624;;;;572455;249;24132;-82
2023/07/31 00:42:06;;;;;;;2.70;2.50;;;15.00;99.90;14.70;99627;;;;566316;249;24231;-82
2023/07/31 00:44:35;;;;;;;4.47;2.13;;;15.00;99.90;14.60;99624;;;;572371;249;24108;-82
2023/07/31 00:47:03;;;;;;;2.53;2.17;;;14.90;99.90;14.60;99620;;;;571318;249;24110;-82
2023/07/31 00:49:33;;;;;;;3.43;2.53;;;14.90;99.90;14.50;99621;;;;567420;249;24103;-82
2023/07/31 00:52:02;;;;;;;5.27;2.20;;;14.70;99.90;14.40;99614;;;;566150;249;24143;-82
2023/07/31 00:54:32;;;;;;;2.00;1.90;;;14.70;99.90;14.40;99613;;;;572246;249;24125;-83
2023/07/31 00:56:57;;;;;;;3.53;2.50;;;14.70;99.90;14.40;99611;;;;571036;249;24206;-81
2023/07/31 00:59:25;;;;;;;2.73;1.93;;;14.70;99.90;14.40;99610;;;;567423;249;24137;-82
2023/07/31 01:01:56;;;;;;;2.93;2.10;;;14.70;99.90;14.40;99605;;;;571670;249;24150;-82
2023/07/31 01:04:24;;;;;;;2.47;2.00;;;14.70;99.90;14.30;99591;;;;572310;249;24128;-81
2023/07/31 01:07:23;;;;;;;6.17;2.23;;;14.70;99.90;14.30;99592;;;;566277;249;24209;-81
2023/07/31 01:09:55;;;;;;;2.37;2.17;;;14.60;99.90;14.30;99582;;;;576398;246;24137;-81
2023/07/31 01:12:22;;;;;;;4.28;3.22;;;14.50;99.90;14.20;99581;;;;562168;245;46355;-82
2023/07/31 01:15:05;;;;;;;5.20;2.77;;;14.50;99.90;14.10;99583;;;;568577;249;24181;-83
2023/07/31 01:17:34;;;;;;;2.30;2.10;;;14.50;99.90;14.10;99579;;;;567126;249;24149;-82
2023/07/31 01:20:03;;;;;;;3.00;2.17;;;14.40;99.90;14.00;99580;;;;576587;249;24115;-81
2023/07/31 01:22:30;;;;;;;4.00;2.30;;;14.30;99.90;13.90;99583;;;;566598;249;24122;-82
2023/07/31 01:25:25;;;;;;;3.33;2.20;;;14.30;99.90;13.90;99585;;;;576870;249;24127;-80
2023/07/31 01:28:02;;;;;;;3.07;2.23;;;14.20;99.90;13.80;99577;;;;575758;249;24203;-81
2023/07/31 01:30:31;;;;;;;2.47;2.20;;;14.10;99.90;13.70;99591;;;;564684;249;24148;-82
2023/07/31 01:32:58;;;;;;;5.10;2.07;;;14.10;99.90;13.70;99595;;;;566306;249;24175;-82
2023/07/31 01:35:30;;;;;;;4.30;2.70;;;14.00;99.90;13.60;99602;;;;572344;249;24117;-81
2023/07/31 01:37:58;;;;;;;3.83;3.07;;;13.90;99.90;13.60;99598;;;;566225;249;24111;-81
2023/07/31 01:40:26;;;;;;;4.20;3.60;;;13.90;99.90;13.50;99605;;;;573202;249;24128;-81
2023/07/31 01:42:54;;;;;;;5.23;3.80;;;13.80;99.90;13.40;99600;;;;571991;249;24155;-82
2023/07/31 01:45:22;;;;;;;5.40;4.20;;;13.80;99.90;13.40;99606;;;;573494;249;24111;-81
2023/07/31 01:47:49;;;;;;;7.27;5.40;;;13.70;99.90;13.40;99605;;;;571374;249;24122;-82
2023/07/31 01:50:19;;;;;;;6.33;4.53;;;13.60;99.90;13.30;99598;;;;575642;245;24159;-82
2023/07/31 01:52:47;;;;;;;6.20;4.07;;;13.60;99.90;13.30;99604;;;;571231;246;24096;-81
2023/07/31 01:55:15;;;;;;;6.47;3.93;;;13.60;99.90;13.20;99598;;;;572388;249;24120;-82
2023/07/31 01:57:43;;;;;;;5.53;3.80;;;13.60;99.90;13.20;99599;;;;571711;248;24215;-82
2023/07/31 02:00:15;;;;;;;3.17;2.97;;;13.50;99.90;13.10;99599;;;;572557;249;24121;-82
2023/07/31 02:02:39;;;;;;;4.30;2.57;;;13.50;99.90;13.10;99596;;;;565793;249;24117;-82
2023/07/31 02:05:07;;;;;;;5.93;3.07;;;13.40;99.90;13.00;99601;;;;572364;249;24125;-82
2023/07/31 02:07:35;;;;;;;2.40;2.20;;;13.40;99.90;13.00;99608;;;;566227;249;24163;-82
2023/07/31 02:10:03;;;;;;;2.53;2.33;;;13.40;99.90;13.00;99608;;;;573009;249;24117;-83
2023/07/31 02:12:33;;;;;;;2.60;2.00;;;13.40;99.90;13.00;99609;;;;566748;249;24157;-83
2023/07/31 02:15:01;;;;;;;6.00;2.60;;;13.40;99.90;13.10;99603;;;;572589;248;24118;-82
2023/07/31 02:17:30;;;;;;;3.67;2.10;;;13.50;99.90;13.10;99601;;;;571725;246;24099;-83
2023/07/31 02:19:57;;;;;;;4.07;2.17;;;13.40;99.90;13.20;99603;;;;572591;249;24121;-82
2023/07/31 02:22:25;;;;;;;1.97;1.87;;;13.50;99.90;13.20;99597;;;;572128;247;24107;-81
2023/07/31 02:24:53;;;;;;;2.90;2.07;;;13.50;99.90;13.20;99600;;;;574129;249;24096;-81
2023/07/31 02:27:24;;;;;;;3.50;2.43;;;13.60;99.90;13.20;99601;;;;572664;249;24116;-82
2023/07/31 02:29:49;;;;;;;2.67;2.47;;;13.60;99.90;13.20;99592;;;;573197;249;24137;-81
2023/07/31 02:32:17;;;;;;;2.27;2.17;;;13.50;99.90;13.20;99595;;;;572206;249;24197;-82
2023/07/31 02:34:45;;;;;;;2.23;2.03;;;13.60;99.90;13.20;99600;;;;573205;249;24134;-81
2023/07/31 02:37:13;;;;;;;6.37;2.30;;;13.60;99.90;13.20;99599;;;;576033;245;24101;-82
2023/07/31 02:39:41;;;;;;;2.73;2.20;;;13.50;99.90;13.20;99599;;;;574085;249;24142;-84
2023/07/31 02:42:09;;;;;;;3.43;2.10;;;13.50;99.90;13.10;99598;;;;572365;249;24180;-85
2023/07/31 02:44:37;;;;;;;3.50;2.10;;;13.50;99.90;13.10;99600;;;;573847;249;24105;-83
2023/07/31 02:47:04;;;;;;;3.80;1.83;;;13.50;99.90;13.00;99607;;;;572859;249;24158;-85
2023/07/31 02:49:32;;;;;;;3.07;1.87;;;13.40;99.90;13.00;99605;;;;573663;249;24106;-86
2023/07/31 02:52:00;;;;;;;3.00;2.00;;;13.40;99.90;13.00;99604;;;;567147;249;24101;-81
2023/07/31 02:54:28;;;;;;;7.93;2.20;;;13.30;99.90;12.90;99606;;;;573021;249;24091;-83
2023/07/31 02:56:57;;;;;;;2.17;2.00;;;13.30;99.90;12.90;99610;;;;571850;249;24099;-82
2023/07/31 02:59:25;;;;;;;3.37;2.07;;;13.20;99.90;12.80;99608;;;;572573;247;25229;-81
2023/07/31 03:01:53;;;;;;;5.80;2.07;;;13.20;99.90;12.80;99615;;;;571121;249;24233;-82
2023/07/31 03:04:21;;;;;;;1.90;1.80;;;13.20;99.90;12.80;99608;;;;572241;249;24121;-80
2023/07/31 03:06:49;;;;;;;2.00;1.90;;;13.20;99.90;12.80;99608;;;;571088;249;24125;-80
2023/07/31 03:09:18;;;;;;;3.20;2.33;;;13.20;99.90;12.80;99608;;;;567139;249;24124;-82
2023/07/31 03:11:46;;;;;;;2.20;2.00;;;13.10;99.90;12.80;99610;;;;571639;249;24111;-82
2023/07/31 03:14:14;;;;;;;2.23;2.03;;;13.20;99.90;12.90;99617;;;;573013;249;24108;-83
2023/07/31 03:16:42;;;;;;;2.70;2.23;;;13.20;99.90;12.90;99615;;;;571353;249;24175;-82
2023/07/31 03:19:10;;;;;;;4.20;1.90;;;13.20;99.90;12.90;99609;;;;576039;249;24116;-82
2023/07/31 03:21:44;;;;;;;5.07;1.90;;;13.20;99.90;12.90;99624;;;;571784;249;24106;-84
2023/07/31 03:24:09;;;;;;;2.63;2.20;;;13.30;99.90;12.90;99616;;;;572375;249;24136;-81
2023/07/31 03:26:41;;;;;;;5.37;2.73;;;13.30;99.90;12.90;99615;;;;571244;249;24132;-82
2023/07/31 03:29:06;;;;;;;5.57;2.40;;;13.30;99.90;13.00;99625;;;;566870;249;24146;-80
2023/07/31 03:31:34;;;;;;;2.97;1.90;;;13.30;99.90;13.00;99618;;;;571417;249;24114;-80
2023/07/31 03:34:01;;;;;;;5.40;2.37;;;13.30;99.90;13.00;99616;;;;572546;247;24117;-81
2023/07/31 03:36:29;;;;;;;2.53;2.33;;;13.40;99.90;13.10;99621;;;;572420;249;24111;-81
2023/07/31 03:38:57;;;;;;;8.50;3.60;;;13.40;99.90;13.10;99629;;;;568275;249;36574;-81
2023/07/31 03:41:25;;;;;;;7.27;3.70;;;13.40;99.90;13.10;99626;;;;566924;249;39766;-83
2023/07/31 03:43:55;;;;;;;6.27;2.73;;;13.50;99.90;13.20;99610;;;;573101;249;24129;-81
2023/07/31 03:46:21;;;;;;;4.03;2.33;;;13.50;99.90;13.20;99621;;;;566642;249;24132;-81
2023/07/31 03:48:50;;;;;;;6.37;2.30;;;13.60;99.90;13.30;99623;;;;572610;249;24141;-82
2023/07/31 03:51:18;;;;;;;2.37;2.17;;;13.60;99.90;13.30;99621;;;;566826;249;24137;-85
2023/07/31 03:53:45;;;;;;;3.00;2.73;;;13.60;99.90;13.50;99635;;;;567807;249;24204;-85
2023/07/31 03:56:13;;;;;;;5.93;2.83;;;13.80;99.90;14.10;99640;;;;566410;249;24138;-81
2023/07/31 03:58:41;;;;;;;4.67;2.73;;;14.40;99.90;15.10;99638;;;;567323;249;24112;-81
2023/07/31 04:01:12;;;;;;;6.40;3.23;;;15.30;99.90;15.80;99636;;;;571759;249;24117;-82
2023/07/31 04:03:40;;;;;;;4.50;2.50;;;16.10;99.90;16.50;99639;;;;572452;249;24176;-82
2023/07/31 04:06:08;;;;;;;7.63;2.37;;;16.70;99.90;17.00;99644;;;;571251;249;24113;-82
2023/07/31 04:08:37;;;;;;;3.63;2.80;;;18.00;99.90;17.70;99647;;;;572517;249;23166;-82
2023/07/31 04:11:05;;;;;;;3.23;2.00;;;18.60;99.90;18.40;99647;;;;571090;249;23138;-82
2023/07/31 04:13:33;;;;;;;2.70;2.43;;;18.60;99.90;18.90;99645;;;;572625;249;24106;-82
2023/07/31 04:16:02;;;;;;;5.30;2.17;;;19.30;99.90;19.50;99648;;;;571470;249;24124;-82
2023/07/31 04:18:31;;;;;;;5.73;2.53;;;19.90;99.90;20.10;99648;;;;567348;249;24157;-81
2023/07/31 04:21:02;;;;;;;2.20;1.90;;;21.10;99.90;20.70;99654;;;;571550;249;24132;-83
2023/07/31 04:23:30;;;;;;;2.57;2.03;;;21.10;99.90;21.10;99661;;;;572331;249;24145;-82
2023/07/31 04:25:55;;;;;;;2.33;2.13;;;21.70;99.90;21.70;99658;;;;566553;249;24127;-81
2023/07/31 04:28:25;;;;;;;4.10;1.97;;;22.20;99.90;22.30;99660;;;;573573;249;24098;-82
2023/07/31 04:30:50;;;;;;;4.27;1.80;;;22.90;99.90;22.90;99657;;;;566918;249;24095;-83
2023/07/31 04:33:19;;;;;;;3.90;2.33;;;23.50;99.90;23.60;99653;;;;568534;249;23154;-82
2023/07/31 04:35:56;;;;;;;5.60;2.77;;;24.20;99.90;24.10;99652;;;;572683;247;24169;-84
2023/07/31 04:38:24;;;;;;;3.23;2.20;;;24.90;99.90;24.50;99656;;;;567804;249;23142;-83
2023/07/31 04:40:51;;;;;;;7.10;1.80;;;25.50;99.90;25.20;99655;;;;567084;249;24115;-81
2023/07/31 04:43:16;;;;;;;4.80;1.77;;;26.00;99.90;25.80;99658;;;;577071;246;23145;-80
2023/07/31 04:45:49;;;;;;;2.67;1.70;;;26.70;99.90;26.60;99650;;;;567455;248;23117;-83
2023/07/31 04:48:14;;;;;;;5.80;1.80;;;27.40;99.90;27.20;99655;;;;568548;249;23123;-83
2023/07/31 04:50:42;;;;;;;2.47;2.00;;;28.10;99.90;27.50;99642;;;;567441;249;23139;-83
2023/07/31 04:53:10;;;;;;;3.80;1.80;;;28.50;99.90;27.80;99648;;;;573482;249;23119;-83
2023/07/31 04:55:38;;;;;;;1.40;1.30;;;28.90;99.90;28.20;99645;;;;567098;249;23218;-82
2023/07/31 04:58:06;;;;;;;2.97;1.58;;;29.30;99.90;28.60;99650;;;;567706;249;23138;-84
2023/07/31 05:00:34;;;;;;;2.55;1.45;;;29.60;99.90;29.00;99649;;;;571959;245;23131;-85
2023/07/31 05:03:02;;;;;;;4.78;1.60;;;30.10;99.90;29.30;99660;;;;573009;249;23105;-85
2023/07/31 05:05:30;;;;;;;5.80;1.70;;;30.40;99.90;29.70;99656;;;;571689;249;24106;-82
2023/07/31 05:07:58;;;;;;;7.20;1.37;;;30.80;99.90;30.00;99650;;;;572722;249;23144;-81
2023/07/31 05:10:25;;;;;;;6.12;2.00;;;31.10;99.90;30.50;99658;;;;571637;249;24088;-82
2023/07/31 05:12:53;;;;;;;1.75;1.30;;;31.60;99.90;30.80;99654;;;;572748;249;23170;-82
2023/07/31 05:15:21;;;;;;;1.90;1.50;;;31.90;99.90;31.20;99646;;;;571340;249;23111;-83
2023/07/31 05:17:49;;;;;;;5.37;1.30;;;32.20;99.90;31.40;99651;;;;572705;249;23166;-86
2023/07/31 05:20:20;;;;;;;3.70;1.77;;;32.50;99.90;31.90;99652;;;;571944;249;23152;-82
2023/07/31 05:22:46;;;;;;;3.67;1.90;;;33.30;99.50;32.20;99654;;;;562781;249;46451;-82
2023/07/31 05:25:14;;;;;;;2.72;1.60;;;33.20;99.50;32.60;99657;;;;571654;249;24157;-82
2023/07/31 05:27:42;;;;;;;11.07;2.45;;;33.60;93.50;32.80;99654;;;;567475;249;24163;-82
2023/07/31 05:30:09;;;;;;;7.70;1.60;;;33.90;99.90;33.40;99656;;;;566320;249;24134;-81
2023/07/31 05:32:37;;;;;;;4.53;1.67;;;34.40;91.00;33.80;99655;;;;572455;245;23158;-82
2023/07/31 05:35:09;;;;;;;10.77;1.70;;;34.70;85.80;34.00;99658;;;;571382;249;24131;-81
2023/07/31 05:37:33;;;;;;;3.83;1.58;;;35.00;89.00;34.50;99660;;;;567046;249;23195;-82
2023/07/31 05:40:01;;;;;;;7.30;1.67;;;35.30;81.50;35.00;99662;;;;571522;249;23116;-82
2023/07/31 05:42:30;;;;;;;3.17;1.25;;;36.30;85.70;35.30;99662;;;;572496;249;23123;-82
2023/07/31 05:44:58;;;;;;;5.15;1.60;;;36.20;85.40;35.50;99666;;;;571044;249;23180;-83
2023/07/31 05:47:26;;;;;;;4.60;2.08;;;36.30;78.60;36.20;99667;;;;572220;249;23134;-81
2023/07/31 05:49:54;;;;;;;2.50;1.17;;;36.70;67.60;36.80;99666;;;;571041;249;24164;-84
2023/07/31 05:52:22;;;;;;;8.10;1.98;;;37.40;65.80;37.10;99670;;;;572563;249;23147;-83
2023/07/31 05:54:50;;;;;;;12.65;2.17;;;37.80;66.90;37.50;99672;;;;571832;249;23120;-84
2023/07/31 05:57:18;;;;;;;5.25;2.03;;;38.50;72.80;37.70;99677;;;;568273;248;23125;-83
2023/07/31 05:59:46;;;;;;;4.70;2.08;;;38.50;72.70;38.00;99678;;;;573120;246;23115;-81
2023/07/31 06:02:14;;;;;;;6.50;1.95;;;38.70;61.00;38.40;99677;;;;573709;248;23142;-83
2023/07/31 06:04:42;;;;;;;3.58;1.45;;;39.10;59.50;38.80;99678;;;;567194;249;23131;-85
2023/07/31 06:07:11;;;;;;;8.68;2.33;;;39.50;57.70;38.90;99688;;;;573363;249;24188;-84
2023/07/31 06:09:38;;;;;;;4.62;1.70;;;39.50;58.30;38.90;99683;;;;571966;246;23159;-82
2023/07/31 06:12:06;;;;;;;3.80;1.67;;;39.70;62.10;39.30;99691;;;;568046;249;35397;-83
2023/07/31 06:14:34;;;;;;;3.95;1.60;;;40.00;55.30;39.40;99692;;;;575936;245;23122;-83
2023/07/31 06:17:02;;;;;;;4.70;1.87;;;40.10;55.00;39.50;99683;;;;572923;249;23137;-83
2023/07/31 06:19:30;;;;;;;4.80;1.55;;;40.10;54.70;39.60;99689;;;;571661;246;23135;-83
2023/07/31 06:21:58;;;;;;;3.70;1.42;;;40.20;52.30;40.00;99694;;;;572243;249;24178;-82
2023/07/31 06:24:26;;;;;;;5.20;1.80;;;40.50;51.10;40.40;99691;;;;571331;247;23177;-84
2023/07/31 06:26:55;;;;;;;8.18;2.50;;;41.10;50.80;40.60;99690;;;;572407;249;23116;-82
2023/07/31 06:29:22;;;;;;;5.00;1.75;;;41.00;50.10;40.90;99698;;;;571471;249;23112;-84
2023/07/31 06:31:50;;;;;;;2.03;1.30;;;41.40;49.30;41.10;99698;;;;572471;249;23142;-83
2023/07/31 06:34:21;;;;;;;8.27;1.65;;;41.60;49.00;41.50;99696;;;;571346;247;23138;-84
2023/07/31 06:36:49;;;;;;;3.10;1.60;;;42.00;49.00;41.50;99693;;;;572216;249;23135;-82
2023/07/31 06:39:17;;;;;;;2.47;1.17;;;42.10;46.80;41.60;99706;;;;571026;249;23164;-81
2023/07/31 06:41:46;;;;;;;5.03;1.62;;;42.10;46.60;41.90;99708;;;;572552;249;23107;-83
2023/07/31 06:44:14;;;;;;;5.37;1.90;;;42.30;47.20;42.20;99704;;;;572568;249;23123;-82
2023/07/31 06:46:42;;;;;;;4.57;1.87;;;42.50;46.30;42.50;99711;;;;574078;249;23129;-80
2023/07/31 06:49:09;;;;;;;14.77;2.25;;;42.90;45.60;42.90;99712;;;;567862;249;23128;-82
2023/07/31 06:51:38;;;;;;;10.57;2.87;;;43.20;44.80;42.90;99713;;;;568536;249;23104;-84
2023/07/31 06:54:05;;;;;;;13.45;2.30;;;43.30;45.30;43.00;99719;;;;579238;241;23064;-84
2023/07/31 06:56:33;;;;;;;11.63;3.03;;;43.40;44.30;43.40;99721;;;;578746;241;23051;-86
2023/07/31 06:59:01;;;;;;;6.00;2.00;;;43.60;43.90;43.00;99718;;;;581877;242;23096;-82
2023/07/31 07:01:29;;;;;;;17.25;2.90;;;43.50;44.90;43.50;99725;;;;587438;241;23066;-87
2023/07/31 07:03:57;;;;;;;9.07;2.47;;;43.80;43.50;44.00;99720;;;;582359;241;23100;-84
2023/07/31 07:06:25;;;;;;;5.50;1.48;;;44.20;44.30;44.20;99722;;;;588788;241;23136;-85
2023/07/31 07:08:53;;;;;;;6.05;1.77;;;44.50;42.60;44.40;99732;;;;584711;240;23070;-85
2023/07/31 07:11:21;;;;;;;2.65;1.40;;;44.70;42.60;44.20;99721;;;;588472;240;23116;-83
2023/07/31 07:13:49;;;;;;;5.55;1.48;;;44.50;41.90;44.20;99718;;;;585970;241;23076;-85
2023/07/31 07:16:16;;;;;;;4.20;1.80;;;44.50;42.00;44.40;99721;;;;586384;242;24116;-83
2023/07/31 07:18:44;;;;;;;3.33;1.65;;;44.50;41.20;44.80;99717;;;;585651;241;23060;-83
2023/07/31 07:21:15;;;;;;;3.22;1.50;;;45.00;41.60;45.60;99723;;;;589436;241;23069;-84
2023/07/31 07:23:40;;;;;;;6.35;2.42;;;45.70;40.90;45.70;99722;;;;587210;241;23131;-84
2023/07/31 07:26:08;;;;;;;2.53;1.73;;;46.00;40.00;45.20;99723;;;;587068;241;23079;-82
2023/07/31 07:28:40;;;;;;;5.15;1.58;;;45.70;39.80;45.40;99721;;;;584704;241;23075;-82
2023/07/31 07:31:07;;;;;;;4.40;1.75;;;45.60;39.70;45.80;99719;;;;586502;241;24140;-84
2023/07/31 07:33:35;;;;;;;1.98;1.27;;;45.90;39.30;46.10;99712;;;;587490;241;23167;-88
2023/07/31 07:36:03;;;;;;;3.25;1.65;;;46.10;39.20;46.30;99712;;;;581056;241;23085;-84
2023/07/31 07:38:31;;;;;;;1.80;1.23;;;46.40;38.90;46.40;99717;;;;581247;245;23103;-85
2023/07/31 07:40:59;;;;;;;2.55;0.90;;;46.60;39.10;46.30;99717;;;;583152;241;23164;-85
2023/07/31 07:43:27;;;;;;;8.93;1.90;;;46.60;38.30;46.40;99711;;;;587597;241;23196;-85
2023/07/31 07:45:58;;;;;;;11.10;2.45;;;46.60;38.30;46.80;99719;;;;580056;241;23125;-87
2023/07/31 07:48:26;;;;;;;2.12;1.33;;;46.90;37.50;46.70;99718;;;;586554;240;23061;-85
2023/07/31 07:50:54;;;;;;;1.98;1.60;;;47.00;37.60;46.90;99719;;;;589125;241;23143;-84
2023/07/31 07:53:25;;;;;;;2.25;1.42;;;47.10;37.20;47.20;99714;;;;586709;240;24103;-82
2023/07/31 07:55:56;;;;;;;2.15;1.30;;;47.30;37.10;47.30;99713;;;;580099;241;23179;-84
2023/07/31 07:58:24;;;;;;;3.45;1.40;;;47.90;36.60;47.80;99715;;;;588625;239;23137;-83
2023/07/31 08:00:52;;;;;;;5.75;1.40;;;47.90;36.60;48.10;99713;;;;590033;241;23102;-83
2023/07/31 08:03:20;;;;;;;3.35;1.67;;;48.30;35.80;48.20;99712;;;;581870;241;23123;-85
2023/07/31 08:05:48;;;;;;;5.43;1.42;;;48.50;35.60;47.60;99712;;;;586219;241;23108;-85
2023/07/31 08:08:19;;;;;;;2.28;1.40;;;48.10;35.90;45.90;99705;;;;580803;241;35234;-86
2023/07/31 08:10:44;;;;;;;3.17;1.37;;;47.20;36.20;44.10;99717;;;;579514;241;23082;-83
2023/07/31 08:13:12;;;;;;;7.28;1.45;;;45.70;36.70;42.60;99715;;;;585730;241;24141;-84
2023/07/31 08:15:40;;;;;;;4.85;1.60;;;44.30;37.70;40.90;99715;;;;581168;241;23062;-84
2023/07/31 08:18:08;;;;;;;1.48;1.37;;;42.40;38.80;41.30;99718;;;;591867;241;23069;-84
2023/07/31 08:20:35;;;;;;;1.65;1.17;;;41.90;40.00;42.20;99713;;;;587280;241;23127;-85
2023/07/31 08:23:03;;;;;;;4.05;1.70;;;42.40;39.90;43.60;99723;;;;589955;240;23083;-85
2023/07/31 08:25:31;;;;;;;4.97;1.35;;;43.50;39.80;44.70;99717;;;;583400;241;23093;-84
2023/07/31 08:27:59;;;;;;;3.60;1.60;;;44.60;39.20;44.50;99714;;;;584006;241;23091;-83
2023/07/31 08:30:28;;;;;;;3.35;1.37;;;44.90;37.50;42.60;99709;;;;587791;241;23090;-82
2023/07/31 08:32:56;;;;;;;4.32;1.58;;;43.80;37.50;41.20;99715;;;;587274;241;23109;-85
2023/07/31 08:35:27;;;;;;;1.67;1.30;;;42.60;38.60;40.40;99700;;;;579418;241;23128;-82
2023/07/31 08:37:53;;;;;;;15.13;2.75;;;41.20;40.40;40.80;99710;;;;579444;241;23125;-86
2023/07/31 08:40:24;;;;;;;2.83;1.50;;;41.60;40.50;41.40;99712;;;;579731;241;23063;-84
2023/07/31 08:42:52;;;;;;;1.83;1.00;;;41.60;40.40;42.20;99705;;;;587970;241;24112;-85
2023/07/31 08:45:20;;;;;;;1.83;1.20;;;42.40;39.90;43.60;99703;;;;574408;241;35027;-85
2023/07/31 08:47:48;;;;;;;1.98;1.27;;;43.60;39.20;44.30;99699;;;;585883;241;23075;-85
2023/07/31 08:50:19;;;;;;;1.05;1.05;;;44.50;37.90;44.10;99701;;;;576598;241;23092;-85
2023/07/31 08:52:45;;;;;;;1.30;1.20;;;44.60;37.60;44.00;99706;;;;583214;241;23071;-83
2023/07/31 08:55:12;;;;;;;2.40;1.00;;;44.50;37.50;44.80;99705;;;;581430;241;23124;-84
2023/07/31 08:57:40;;;;;;;3.40;1.45;;;45.20;37.70;45.80;99708;;;;588004;240;23188;-82
2023/07/31 09:00:10;;;;;;;3.05;1.50;;;46.10;37.10;46.70;99700;;;;583619;241;23051;-80
2023/07/31 09:02:47;;;;;;;3.35;1.20;;;47.10;35.80;47.10;99700;;;;580932;241;23062;-81
2023/07/31 09:05:15;;;;;;;1.30;1.17;;;47.70;35.20;47.30;99696;;;;589367;241;23059;-81
2023/07/31 09:07:46;;;;;;;3.00;1.20;;;48.00;35.10;47.20;99698;;;;578346;241;23080;-83
2023/07/31 09:10:15;;;;;;;1.50;1.40;;;47.30;34.70;45.60;99700;;;;575456;241;23100;-83
2023/07/31 09:12:40;;;;;;;2.60;1.25;;;45.40;35.40;43.10;99695;;;;578897;241;23101;-84
2023/07/31 09:15:12;;;;;;;1.85;1.70;;;45.30;35.30;41.40;99700;;;;590300;241;23060;-82
2023/07/31 09:17:36;;;;;;;1.58;1.20;;;43.40;36.40;41.00;99696;;;;580996;241;24106;-85
2023/07/31 09:20:16;;;;;;;3.35;1.20;;;42.40;38.50;41.80;99696;;;;574374;243;23127;-85
2023/07/31 09:22:47;;;;;;;0.90;0.90;;;42.50;39.30;41.50;99685;;;;579289;241;23059;-81
2023/07/31 09:25:23;;;;;;;3.62;1.40;;;42.50;39.10;40.80;99682;;;;582084;241;23074;-86
2023/07/31 09:28:06;;;;;;;1.40;1.20;;;41.90;39.30;42.20;99683;;;;587937;241;23068;-84
2023/07/31 09:30:49;;;;;;;2.40;1.02;;;42.60;39.40;43.80;99688;;;;587646;241;23097;-85
2023/07/31 09:33:17;;;;;;;2.05;1.20;;;44.20;38.90;45.50;99680;;;;588697;240;23087;-82
2023/07/31 09:35:45;;;;;;;1.25;1.10;;;46.00;36.60;46.40;99685;;;;589347;240;24123;-83
2023/07/31 09:38:13;;;;;;;2.55;1.20;;;47.10;36.00;46.80;99683;;;;588095;241;23090;-86
2023/07/31 09:40:42;;;;;;;1.12;1.00;;;47.80;34.20;46.30;99686;;;;583956;241;23065;-85
2023/07/31 09:43:13;;;;;;;1.83;1.45;;;47.80;34.10;45.20;99683;;;;582214;241;23100;-85
2023/07/31 09:45:40;;;;;;;14.05;7.15;;;47.00;34.50;43.70;99685;;;;581310;241;23127;-85
2023/07/31 09:48:09;;;;;;;2.17;1.37;;;43.90;36.50;42.00;99679;;;;587822;240;24081;-85
2023/07/31 09:50:40;;;;;;;2.65;1.17;;;43.80;36.40;42.60;99675;;;;580791;241;23071;-84
2023/07/31 09:53:10;;;;;;;4.28;1.23;;;43.60;37.90;44.00;99676;;;;577478;241;23040;-83
2023/07/31 09:55:36;;;;;;;3.00;1.35;;;45.90;36.50;45.40;99675;;;;577476;243;23199;-83
2023/07/31 09:58:05;;;;;;;1.25;1.05;;;45.90;36.40;46.60;99672;;;;583771;241;23110;-84
2023/07/31 10:00:34;;;;;;;2.00;1.25;;;48.40;33.70;47.30;99665;;;;581178;241;45933;-84
2023/07/31 10:03:08;;;;;;;3.80;1.40;;;48.40;33.60;47.10;99663;;;;587853;243;23068;-83
2023/07/31 10:05:35;;;;;;;2.22;1.33;;;48.60;33.40;46.30;99667;;;;584261;241;23080;-84
2023/07/31 10:08:06;;;;;;;2.05;1.12;;;48.20;33.10;45.10;99668;;;;577441;246;23080;-83
2023/07/31 10:10:34;;;;;;;1.00;1.00;;;47.00;34.00;44.40;99668;;;;573576;246;24139;-83
2023/07/31 10:13:02;;;;;;;1.35;1.00;;;45.50;34.60;44.20;99661;;;;567926;247;46086;-85
2023/07/31 10:15:31;;;;;;;1.52;1.15;;;45.80;35.30;44.60;99651;;;;571916;246;23155;-85
2023/07/31 10:18:02;;;;;;;2.62;1.00;;;45.80;35.20;44.10;99653;;;;581866;245;23138;-84
2023/07/31 10:20:30;;;;;;;2.72;0.88;;;45.60;34.40;43.30;99644;;;;571613;246;23152;-86
2023/07/31 10:22:58;;;;;;;2.83;1.40;;;44.90;35.00;43.10;99644;;;;572364;247;23141;-84
2023/07/31 10:25:23;;;;;;;1.70;1.60;;;43.90;36.30;42.50;99649;;;;573671;246;23104;-82
2023/07/31 10:27:52;;;;;;;2.93;1.37;;;43.80;36.30;41.00;99647;;;;567946;246;35289;-82
2023/07/31 10:30:19;;;;;;;7.43;1.52;;;42.70;36.50;39.60;99640;;;;567112;246;35228;-83
2023/07/31 10:32:50;;;;;;;4.20;1.30;;;41.20;38.20;38.60;99637;;;;568137;246;35267;-87
2023/07/31 10:35:15;;;;;;;2.78;1.10;;;40.00;39.60;37.60;99640;;;;582634;246;24159;-83
2023/07/31 10:37:43;;;;;;;1.30;1.20;;;38.90;40.50;37.00;99636;;;;573036;247;23103;-84
2023/07/31 10:40:17;;;;;;;4.20;1.17;;;38.00;41.90;36.20;99639;;;;573928;246;23145;-84
2023/07/31 10:42:50;;;;;;;1.75;1.65;;;37.00;43.30;35.80;99643;;;;570164;247;23133;-82
2023/07/31 10:45:37;;;;;;;1.55;1.40;;;36.40;44.00;35.30;99628;;;;583755;244;23103;-84
2023/07/31 10:48:05;;;;;;;2.45;2.30;;;35.90;44.40;34.40;99627;;;;572222;246;23140;-85
2023/07/31 10:50:33;;;;;;;1.20;1.00;;;34.60;46.40;34.00;99635;;;;576780;246;23111;-84
2023/07/31 10:53:04;;;;;;;2.17;1.00;;;34.50;46.30;33.60;99631;;;;581955;245;23104;-83
2023/07/31 10:55:35;;;;;;;3.08;1.15;;;34.10;46.70;33.30;99634;;;;573913;246;24124;-85
2023/07/31 10:58:12;;;;;;;1.90;1.42;;;33.30;48.60;33.00;99635;;;;572959;246;23103;-84
2023/07/31 11:00:46;;;;;;;2.37;1.00;;;33.30;48.60;32.70;99629;;;;583073;245;23106;-84
2023/07/31 11:03:21;;;;;;;1.77;0.95;;;33.10;48.00;32.50;99628;;;;573355;247;23112;-87
2023/07/31 11:05:54;;;;;;;0.93;0.80;;;32.90;48.80;32.30;99626;;;;576403;243;23131;-84
2023/07/31 11:08:24;;;;;;;1.77;1.17;;;32.60;48.90;31.80;99621;;;;582934;246;23099;-85
2023/07/31 11:10:58;;;;;;;1.85;1.33;;;32.30;49.20;31.30;99624;;;;575633;246;24091;-84
2023/07/31 11:13:30;;;;;;;2.58;1.45;;;31.80;50.60;30.90;99613;;;;571936;246;24185;-85
2023/07/31 11:15:59;;;;;;;3.20;1.00;;;31.30;51.80;30.80;99605;;;;578858;246;23093;-83
2023/07/31 11:18:23;;;;;;;1.55;1.35;;;31.20;52.70;30.70;99617;;;;575051;246;23133;-87
2023/07/31 11:20:55;;;;;;;1.50;1.10;;;31.00;51.60;30.70;99627;;;;574824;246;23135;-85
2023/07/31 11:23:25;;;;;;;3.17;1.00;;;31.00;52.40;30.60;99623;;;;571583;246;23152;-86